sensor_id;sensor_type;location;lat;lon;timestamp;pressure;altitude;pressure_sealevel;temperature;humidity
45071;BME280;30836;48.906;9.140;2024-01-15T00:00:16;976.25;;;6.70;40.63
45071;BME280;30836;48.906;9.140;2024-01-15T00:01:16;976.25;;;6.74;40.52
45071;BME280;30836;48.906;9.140;2024-01-15T00:02:17;976.25;;;6.78;40.33
45071;BME280;30836;48.906;9.140;2024-01-15T00:03:17;976.23;;;6.80;40.20
45071;BME280;30836;48.906;9.140;2024-01-15T00:04:18;976.23;;;6.80;40.21
45071;BME280;30836;48.906;9.140;2024-01-15T00:05:18;976.21;;;6.80;40.22
45071;BME280;30836;48.906;9.140;2024-01-15T00:06:19;976.21;;;6.82;40.17
45071;BME280;30836;48.906;9.140;2024-01-15T00:07:19;976.19;;;6.85;39.97
45071;BME280;30836;48.906;9.140;2024-01-15T00:08:20;976.19;;;6.85;40.02
45071;BME280;30836;48.906;9.140;2024-01-15T00:09:20;976.19;;;6.84;40.06
45071;BME280;30836;48.906;9.140;2024-01-15T00:10:20;976.19;;;6.82;40.05
45071;BME280;30836;48.906;9.140;2024-01-15T00:11:21;976.17;;;6.80;40.06
45071;BME280;30836;48.906;9.140;2024-01-15T00:12:21;976.17;;;6.76;40.23
45071;BME280;30836;48.906;9.140;2024-01-15T00:13:22;976.17;;;6.70;40.29
45071;BME280;30836;48.906;9.140;2024-01-15T00:14:22;976.15;;;6.66;40.33
45071;BME280;30836;48.906;9.140;2024-01-15T00:15:23;976.13;;;6.67;40.31
45071;BME280;30836;48.906;9.140;2024-01-15T00:16:23;976.13;;;6.68;40.29
45071;BME280;30836;48.906;9.140;2024-01-15T00:17:24;976.13;;;6.65;40.43
45071;BME280;30836;48.906;9.140;2024-01-15T00:18:25;976.07;;;6.55;40.72
45071;BME280;30836;48.906;9.140;2024-01-15T00:19:25;976.07;;;6.42;40.94
45071;BME280;30836;48.906;9.140;2024-01-15T00:20:25;976.07;;;6.36;40.99
45071;BME280;30836;48.906;9.140;2024-01-15T00:21:26;976.07;;;6.36;40.97
45071;BME280;30836;48.906;9.140;2024-01-15T00:22:26;976.01;;;6.34;41.02
45071;BME280;30836;48.906;9.140;2024-01-15T00:23:27;975.97;;;6.32;41.09
45071;BME280;30836;48.906;9.140;2024-01-15T00:24:27;975.99;;;6.29;41.17
45071;BME280;30836;48.906;9.140;2024-01-15T00:25:28;975.95;;;6.22;41.48
45071;BME280;30836;48.906;9.140;2024-01-15T00:26:28;975.95;;;6.15;41.70
45071;BME280;30836;48.906;9.140;2024-01-15T00:27:28;975.93;;;6.10;41.70
45071;BME280;30836;48.906;9.140;2024-01-15T00:28:29;975.89;;;6.06;41.86
45071;BME280;30836;48.906;9.140;2024-01-15T00:29:29;975.87;;;6.04;41.85
45071;BME280;30836;48.906;9.140;2024-01-15T00:30:30;975.89;;;6.07;41.81
45071;BME280;30836;48.906;9.140;2024-01-15T00:31:30;975.93;;;6.11;41.57
45071;BME280;30836;48.906;9.140;2024-01-15T00:32:31;975.87;;;6.16;41.51
45071;BME280;30836;48.906;9.140;2024-01-15T00:33:31;975.89;;;6.21;41.54
45071;BME280;30836;48.906;9.140;2024-01-15T00:34:31;975.87;;;6.26;41.47
45071;BME280;30836;48.906;9.140;2024-01-15T00:35:32;975.87;;;6.33;41.38
45071;BME280;30836;48.906;9.140;2024-01-15T00:36:32;975.89;;;6.39;41.27
45071;BME280;30836;48.906;9.140;2024-01-15T00:37:33;975.87;;;6.44;41.16
45071;BME280;30836;48.906;9.140;2024-01-15T00:38:33;975.89;;;6.49;41.07
45071;BME280;30836;48.906;9.140;2024-01-15T00:39:34;975.87;;;6.49;41.01
45071;BME280;30836;48.906;9.140;2024-01-15T00:40:34;975.87;;;6.46;41.05
45071;BME280;30836;48.906;9.140;2024-01-15T00:41:34;975.83;;;6.44;41.06
45071;BME280;30836;48.906;9.140;2024-01-15T00:42:35;975.85;;;6.40;41.20
45071;BME280;30836;48.906;9.140;2024-01-15T00:43:35;975.87;;;6.30;41.64
45071;BME280;30836;48.906;9.140;2024-01-15T00:44:36;975.83;;;6.20;41.86
45071;BME280;30836;48.906;9.140;2024-01-15T00:45:36;975.83;;;6.10;42.35
45071;BME280;30836;48.906;9.140;2024-01-15T00:47:43;975.83;;;5.86;43.17
45071;BME280;30836;48.906;9.140;2024-01-15T00:48:43;975.80;;;5.72;43.57
45071;BME280;30836;48.906;9.140;2024-01-15T00:49:44;975.80;;;5.69;43.57
45071;BME280;30836;48.906;9.140;2024-01-15T00:50:44;975.80;;;5.69;43.61
45071;BME280;30836;48.906;9.140;2024-01-15T00:51:45;975.80;;;5.64;43.84
45071;BME280;30836;48.906;9.140;2024-01-15T00:52:45;975.78;;;5.55;44.33
45071;BME280;30836;48.906;9.140;2024-01-15T00:53:46;975.80;;;5.41;44.99
45071;BME280;30836;48.906;9.140;2024-01-15T00:54:46;975.81;;;5.27;45.22
45071;BME280;30836;48.906;9.140;2024-01-15T00:55:47;975.81;;;5.18;45.90
45071;BME280;30836;48.906;9.140;2024-01-15T00:56:47;975.81;;;5.15;45.82
45071;BME280;30836;48.906;9.140;2024-01-15T00:57:48;975.87;;;5.19;45.86
45071;BME280;30836;48.906;9.140;2024-01-15T00:58:48;975.85;;;5.18;46.01
45071;BME280;30836;48.906;9.140;2024-01-15T00:59:49;975.85;;;5.19;45.94
45071;BME280;30836;48.906;9.140;2024-01-15T01:00:49;975.85;;;5.25;45.96
45071;BME280;30836;48.906;9.140;2024-01-15T01:01:50;975.85;;;5.35;45.60
45071;BME280;30836;48.906;9.140;2024-01-15T01:02:50;975.83;;;5.37;45.95
45071;BME280;30836;48.906;9.140;2024-01-15T01:03:50;975.83;;;5.31;46.17
45071;BME280;30836;48.906;9.140;2024-01-15T01:04:51;975.81;;;5.29;46.19
45071;BME280;30836;48.906;9.140;2024-01-15T01:05:51;975.81;;;5.29;46.33
45071;BME280;30836;48.906;9.140;2024-01-15T01:06:52;975.80;;;5.29;46.29
45071;BME280;30836;48.906;9.140;2024-01-15T01:07:52;975.78;;;5.30;46.32
45071;BME280;30836;48.906;9.140;2024-01-15T01:08:53;975.80;;;5.28;46.22
45071;BME280;30836;48.906;9.140;2024-01-15T01:09:53;975.78;;;5.25;46.57
45071;BME280;30836;48.906;9.140;2024-01-15T01:10:55;975.81;;;5.26;46.43
45071;BME280;30836;48.906;9.140;2024-01-15T01:11:56;975.78;;;5.09;47.73
45071;BME280;30836;48.906;9.140;2024-01-15T01:12:56;975.78;;;4.90;47.71
45071;BME280;30836;48.906;9.140;2024-01-15T01:13:57;975.76;;;4.90;47.71
45071;BME280;30836;48.906;9.140;2024-01-15T01:14:57;975.78;;;4.85;47.86
45071;BME280;30836;48.906;9.140;2024-01-15T01:15:58;975.80;;;4.82;48.15
45071;BME280;30836;48.906;9.140;2024-01-15T01:16:58;975.78;;;4.72;48.37
45071;BME280;30836;48.906;9.140;2024-01-15T01:17:59;975.81;;;4.56;48.95
45071;BME280;30836;48.906;9.140;2024-01-15T01:18:59;975.76;;;4.42;49.38
45071;BME280;30836;48.906;9.140;2024-01-15T01:20:00;975.76;;;4.33;49.39
45071;BME280;30836;48.906;9.140;2024-01-15T01:21:00;975.76;;;4.28;49.52
45071;BME280;30836;48.906;9.140;2024-01-15T01:22:00;975.74;;;4.31;49.47
45071;BME280;30836;48.906;9.140;2024-01-15T01:23:01;975.70;;;4.31;49.43
45071;BME280;30836;48.906;9.140;2024-01-15T01:24:01;975.76;;;4.17;50.05
45071;BME280;30836;48.906;9.140;2024-01-15T01:25:02;975.76;;;4.10;50.13
45071;BME280;30836;48.906;9.140;2024-01-15T01:26:02;975.78;;;4.16;49.65
45071;BME280;30836;48.906;9.140;2024-01-15T01:27:03;975.72;;;4.25;49.61
45071;BME280;30836;48.906;9.140;2024-01-15T01:28:04;975.72;;;4.38;49.29
45071;BME280;30836;48.906;9.140;2024-01-15T01:29:04;975.70;;;4.49;49.01
45071;BME280;30836;48.906;9.140;2024-01-15T01:30:05;975.74;;;4.52;49.01
45071;BME280;30836;48.906;9.140;2024-01-15T01:31:06;975.72;;;4.50;49.23
45071;BME280;30836;48.906;9.140;2024-01-15T01:32:06;975.76;;;4.54;48.93
45071;BME280;30836;48.906;9.140;2024-01-15T01:33:06;975.74;;;4.66;48.61
45071;BME280;30836;48.906;9.140;2024-01-15T01:34:07;975.72;;;4.72;48.56
45071;BME280;30836;48.906;9.140;2024-01-15T01:35:07;975.78;;;4.76;48.45
45071;BME280;30836;48.906;9.140;2024-01-15T01:36:08;975.76;;;4.82;48.29
45071;BME280;30836;48.906;9.140;2024-01-15T01:37:09;975.76;;;4.87;48.15
45071;BME280;30836;48.906;9.140;2024-01-15T01:38:11;975.76;;;4.94;48.04
45071;BME280;30836;48.906;9.140;2024-01-15T01:39:11;975.81;;;5.00;47.89
45071;BME280;30836;48.906;9.140;2024-01-15T01:40:11;975.78;;;5.06;47.87
45071;BME280;30836;48.906;9.140;2024-01-15T01:41:12;975.76;;;5.18;47.43
45071;BME280;30836;48.906;9.140;2024-01-15T01:42:12;975.76;;;5.26;47.19
45071;BME280;30836;48.906;9.140;2024-01-15T01:43:13;975.78;;;5.25;47.45
45071;BME280;30836;48.906;9.140;2024-01-15T01:44:13;975.74;;;5.21;47.59
45071;BME280;30836;48.906;9.140;2024-01-15T01:45:14;975.78;;;5.14;47.73
45071;BME280;30836;48.906;9.140;2024-01-15T01:46:15;975.78;;;5.15;47.65
45071;BME280;30836;48.906;9.140;2024-01-15T01:47:15;975.78;;;5.21;47.48
45071;BME280;30836;48.906;9.140;2024-01-15T01:47:25;975.76;;;5.31;47.40
45071;BME280;30836;48.906;9.140;2024-01-15T01:48:26;975.74;;;5.33;47.19
45071;BME280;30836;48.906;9.140;2024-01-15T01:49:27;975.76;;;5.29;47.40
45071;BME280;30836;48.906;9.140;2024-01-15T01:50:30;975.76;;;5.10;47.97
45071;BME280;30836;48.906;9.140;2024-01-15T01:51:31;975.76;;;4.87;48.65
45071;BME280;30836;48.906;9.140;2024-01-15T01:52:34;975.80;;;4.68;49.03
45071;BME280;30836;48.906;9.140;2024-01-15T01:53:35;975.74;;;4.56;49.30
45071;BME280;30836;48.906;9.140;2024-01-15T01:54:38;975.76;;;4.48;49.47
45071;BME280;30836;48.906;9.140;2024-01-15T01:55:40;975.76;;;4.47;49.29
45071;BME280;30836;48.906;9.140;2024-01-15T01:56:41;975.70;;;4.58;48.98
45071;BME280;30836;48.906;9.140;2024-01-15T01:57:42;975.72;;;4.66;48.82
45071;BME280;30836;48.906;9.140;2024-01-15T01:58:43;975.72;;;4.65;49.05
45071;BME280;30836;48.906;9.140;2024-01-15T01:59:44;975.68;;;4.56;49.34
45071;BME280;30836;48.906;9.140;2024-01-15T02:00:46;975.68;;;4.46;49.56
45071;BME280;30836;48.906;9.140;2024-01-15T02:01:47;975.66;;;4.43;49.48
45071;BME280;30836;48.906;9.140;2024-01-15T02:02:49;975.66;;;4.46;49.44
45071;BME280;30836;48.906;9.140;2024-01-15T02:03:49;975.70;;;4.42;49.61
45071;BME280;30836;48.906;9.140;2024-01-15T02:04:50;975.66;;;4.34;49.79
45071;BME280;30836;48.906;9.140;2024-01-15T02:05:50;975.74;;;4.29;49.89
45071;BME280;30836;48.906;9.140;2024-01-15T02:06:52;975.68;;;4.29;49.86
45071;BME280;30836;48.906;9.140;2024-01-15T02:07:52;975.70;;;4.28;50.01
45071;BME280;30836;48.906;9.140;2024-01-15T02:08:53;975.74;;;4.32;49.69
45071;BME280;30836;48.906;9.140;2024-01-15T02:09:53;975.74;;;4.37;49.62
45071;BME280;30836;48.906;9.140;2024-01-15T02:10:54;975.68;;;4.45;49.36
45071;BME280;30836;48.906;9.140;2024-01-15T02:11:54;975.68;;;4.59;49.06
45071;BME280;30836;48.906;9.140;2024-01-15T02:12:55;975.70;;;4.73;48.65
45071;BME280;30836;48.906;9.140;2024-01-15T02:13:55;975.68;;;4.83;48.62
45071;BME280;30836;48.906;9.140;2024-01-15T02:14:56;975.68;;;4.87;48.42
45071;BME280;30836;48.906;9.140;2024-01-15T02:15:56;975.68;;;4.94;48.02
45071;BME280;30836;48.906;9.140;2024-01-15T02:16:57;975.72;;;5.00;48.00
45071;BME280;30836;48.906;9.140;2024-01-15T02:18:01;975.66;;;5.04;48.16
45071;BME280;30836;48.906;9.140;2024-01-15T02:19:03;975.66;;;5.02;48.01
45071;BME280;30836;48.906;9.140;2024-01-15T02:20:03;975.66;;;5.07;47.79
45071;BME280;30836;48.906;9.140;2024-01-15T02:21:04;975.68;;;5.10;47.90
45071;BME280;30836;48.906;9.140;2024-01-15T02:22:04;975.62;;;5.05;47.95
45071;BME280;30836;48.906;9.140;2024-01-15T02:23:07;975.64;;;5.02;48.01
45071;BME280;30836;48.906;9.140;2024-01-15T02:24:12;975.58;;;4.96;48.39
45071;BME280;30836;48.906;9.140;2024-01-15T02:25:13;975.60;;;4.94;48.24
45071;BME280;30836;48.906;9.140;2024-01-15T02:26:13;975.56;;;5.01;47.97
45071;BME280;30836;48.906;9.140;2024-01-15T02:27:14;975.60;;;5.08;47.83
45071;BME280;30836;48.906;9.140;2024-01-15T02:28:16;975.60;;;5.13;47.76
45071;BME280;30836;48.906;9.140;2024-01-15T02:29:17;975.54;;;5.14;47.78
45071;BME280;30836;48.906;9.140;2024-01-15T02:30:18;975.52;;;5.21;47.56
45071;BME280;30836;48.906;9.140;2024-01-15T02:31:18;975.54;;;5.30;47.34
45071;BME280;30836;48.906;9.140;2024-01-15T02:32:19;975.54;;;5.31;47.39
45071;BME280;30836;48.906;9.140;2024-01-15T02:33:19;975.52;;;5.23;47.81
45071;BME280;30836;48.906;9.140;2024-01-15T02:34:19;975.52;;;5.21;47.56
45071;BME280;30836;48.906;9.140;2024-01-15T02:35:20;975.50;;;5.28;47.39
45071;BME280;30836;48.906;9.140;2024-01-15T02:36:20;975.52;;;5.33;47.23
45071;BME280;30836;48.906;9.140;2024-01-15T02:37:21;975.52;;;5.39;47.15
45071;BME280;30836;48.906;9.140;2024-01-15T02:38:21;975.54;;;5.41;47.08
45071;BME280;30836;48.906;9.140;2024-01-15T02:39:21;975.52;;;5.47;46.90
45071;BME280;30836;48.906;9.140;2024-01-15T02:40:22;975.52;;;5.55;46.73
45071;BME280;30836;48.906;9.140;2024-01-15T02:41:22;975.52;;;5.56;46.68
45071;BME280;30836;48.906;9.140;2024-01-15T02:42:23;975.52;;;5.61;46.38
45071;BME280;30836;48.906;9.140;2024-01-15T02:43:23;975.54;;;5.73;46.16
45071;BME280;30836;48.906;9.140;2024-01-15T02:44:24;975.56;;;5.83;45.95
45071;BME280;30836;48.906;9.140;2024-01-15T02:45:24;975.54;;;5.91;45.81
45071;BME280;30836;48.906;9.140;2024-01-15T02:46:25;975.58;;;5.98;45.76
45071;BME280;30836;48.906;9.140;2024-01-15T02:47:25;975.56;;;5.99;45.64
45071;BME280;30836;48.906;9.140;2024-01-15T02:48:26;975.56;;;5.96;45.92
45071;BME280;30836;48.906;9.140;2024-01-15T02:49:26;975.58;;;5.96;45.61
45071;BME280;30836;48.906;9.140;2024-01-15T02:50:27;975.60;;;6.04;45.42
45071;BME280;30836;48.906;9.140;2024-01-15T02:50:36;975.64;;;6.10;45.40
45071;BME280;30836;48.906;9.140;2024-01-15T02:51:37;975.60;;;6.08;45.45
45071;BME280;30836;48.906;9.140;2024-01-15T02:52:37;975.62;;;6.03;45.56
45071;BME280;30836;48.906;9.140;2024-01-15T02:53:38;975.60;;;5.96;45.78
45071;BME280;30836;48.906;9.140;2024-01-15T02:54:38;975.60;;;5.88;45.99
45071;BME280;30836;48.906;9.140;2024-01-15T02:55:39;975.56;;;5.82;46.10
45071;BME280;30836;48.906;9.140;2024-01-15T02:56:39;975.54;;;5.77;46.12
45071;BME280;30836;48.906;9.140;2024-01-15T02:57:40;975.50;;;5.71;46.34
45071;BME280;30836;48.906;9.140;2024-01-15T02:58:40;975.48;;;5.62;46.53
45071;BME280;30836;48.906;9.140;2024-01-15T02:59:41;975.48;;;5.55;46.66
45071;BME280;30836;48.906;9.140;2024-01-15T03:00:41;975.48;;;5.47;46.90
45071;BME280;30836;48.906;9.140;2024-01-15T03:01:41;975.50;;;5.37;47.26
45071;BME280;30836;48.906;9.140;2024-01-15T03:02:44;975.48;;;5.32;47.20
45071;BME280;30836;48.906;9.140;2024-01-15T03:03:45;975.44;;;5.37;47.01
45071;BME280;30836;48.906;9.140;2024-01-15T03:04:45;975.46;;;5.40;47.02
45071;BME280;30836;48.906;9.140;2024-01-15T03:05:46;975.46;;;5.32;47.34
45071;BME280;30836;48.906;9.140;2024-01-15T03:06:46;975.44;;;5.22;47.54
45071;BME280;30836;48.906;9.140;2024-01-15T03:07:46;975.48;;;5.13;48.00
45071;BME280;30836;48.906;9.140;2024-01-15T03:08:47;975.46;;;5.11;47.81
45071;BME280;30836;48.906;9.140;2024-01-15T03:09:47;975.48;;;5.14;47.54
45071;BME280;30836;48.906;9.140;2024-01-15T03:10:48;975.46;;;5.16;47.68
45071;BME280;30836;48.906;9.140;2024-01-15T03:11:48;975.50;;;5.17;47.65
45071;BME280;30836;48.906;9.140;2024-01-15T03:12:49;975.48;;;5.19;47.55
45071;BME280;30836;48.906;9.140;2024-01-15T03:13:49;975.50;;;5.22;47.49
45071;BME280;30836;48.906;9.140;2024-01-15T03:14:49;975.46;;;5.25;47.48
45071;BME280;30836;48.906;9.140;2024-01-15T03:15:50;975.46;;;5.25;47.58
45071;BME280;30836;48.906;9.140;2024-01-15T03:16:50;975.44;;;5.23;47.48
45071;BME280;30836;48.906;9.140;2024-01-15T03:17:51;975.44;;;5.22;47.60
45071;BME280;30836;48.906;9.140;2024-01-15T03:18:51;975.42;;;5.19;47.82
45071;BME280;30836;48.906;9.140;2024-01-15T03:19:52;975.44;;;5.12;48.09
45071;BME280;30836;48.906;9.140;2024-01-15T03:20:52;975.44;;;5.05;48.14
45071;BME280;30836;48.906;9.140;2024-01-15T03:21:52;975.40;;;5.01;48.33
45071;BME280;30836;48.906;9.140;2024-01-15T03:22:53;975.38;;;4.98;48.31
45071;BME280;30836;48.906;9.140;2024-01-15T03:23:53;975.42;;;5.01;48.06
45071;BME280;30836;48.906;9.140;2024-01-15T03:24:54;975.38;;;5.06;48.05
45071;BME280;30836;48.906;9.140;2024-01-15T03:25:54;975.38;;;5.10;47.94
45071;BME280;30836;48.906;9.140;2024-01-15T03:26:55;975.36;;;5.12;47.92
45071;BME280;30836;48.906;9.140;2024-01-15T03:27:55;975.40;;;5.16;47.86
45071;BME280;30836;48.906;9.140;2024-01-15T03:28:55;975.38;;;5.19;47.96
45071;BME280;30836;48.906;9.140;2024-01-15T03:29:56;975.40;;;5.18;47.99
45071;BME280;30836;48.906;9.140;2024-01-15T03:30:56;975.38;;;5.19;47.94
45071;BME280;30836;48.906;9.140;2024-01-15T03:31:57;975.44;;;5.16;47.94
45071;BME280;30836;48.906;9.140;2024-01-15T03:32:57;975.38;;;5.07;48.21
45071;BME280;30836;48.906;9.140;2024-01-15T03:33:58;975.36;;;4.96;48.39
45071;BME280;30836;48.906;9.140;2024-01-15T03:34:58;975.32;;;4.92;48.58
45071;BME280;30836;48.906;9.140;2024-01-15T03:35:58;975.26;;;4.97;48.27
45071;BME280;30836;48.906;9.140;2024-01-15T03:36:59;975.30;;;5.03;48.13
45071;BME280;30836;48.906;9.140;2024-01-15T03:37:59;975.30;;;5.06;48.23
45071;BME280;30836;48.906;9.140;2024-01-15T03:39:00;975.30;;;5.00;48.34
45071;BME280;30836;48.906;9.140;2024-01-15T03:40:00;975.32;;;4.87;48.97
45071;BME280;30836;48.906;9.140;2024-01-15T03:41:01;975.32;;;4.79;49.01
45071;BME280;30836;48.906;9.140;2024-01-15T03:42:01;975.30;;;4.72;49.14
45071;BME280;30836;48.906;9.140;2024-01-15T03:43:02;975.32;;;4.65;49.38
45071;BME280;30836;48.906;9.140;2024-01-15T03:44:02;975.34;;;4.59;49.54
45071;BME280;30836;48.906;9.140;2024-01-15T03:45:03;975.32;;;4.67;49.16
45071;BME280;30836;48.906;9.140;2024-01-15T03:46:04;975.36;;;4.76;48.92
45071;BME280;30836;48.906;9.140;2024-01-15T03:47:04;975.34;;;4.79;49.01
45071;BME280;30836;48.906;9.140;2024-01-15T03:48:05;975.38;;;4.77;49.15
45071;BME280;30836;48.906;9.140;2024-01-15T03:49:05;975.34;;;4.78;49.07
45071;BME280;30836;48.906;9.140;2024-01-15T03:50:06;975.30;;;4.82;48.77
45071;BME280;30836;48.906;9.140;2024-01-15T03:51:06;975.28;;;4.86;48.75
45071;BME280;30836;48.906;9.140;2024-01-15T03:52:07;975.28;;;4.92;48.50
45071;BME280;30836;48.906;9.140;2024-01-15T03:53:07;975.28;;;4.98;48.58
45071;BME280;30836;48.906;9.140;2024-01-15T03:54:08;975.32;;;5.01;48.44
45071;BME280;30836;48.906;9.140;2024-01-15T03:55:08;975.34;;;5.08;48.21
45071;BME280;30836;48.906;9.140;2024-01-15T03:56:09;975.28;;;5.07;48.30
45071;BME280;30836;48.906;9.140;2024-01-15T03:57:09;975.23;;;5.03;48.56
45071;BME280;30836;48.906;9.140;2024-01-15T03:58:09;975.25;;;5.02;48.43
45071;BME280;30836;48.906;9.140;2024-01-15T03:59:10;975.26;;;5.09;48.24
45071;BME280;30836;48.906;9.140;2024-01-15T04:00:10;975.25;;;5.27;47.75
45071;BME280;30836;48.906;9.140;2024-01-15T04:01:11;975.25;;;5.45;47.29
45071;BME280;30836;48.906;9.140;2024-01-15T04:02:12;975.25;;;5.55;47.14
45071;BME280;30836;48.906;9.140;2024-01-15T04:03:13;975.25;;;5.67;46.78
45071;BME280;30836;48.906;9.140;2024-01-15T04:04:13;975.25;;;5.76;46.53
45071;BME280;30836;48.906;9.140;2024-01-15T04:05:13;975.25;;;5.78;46.74
45071;BME280;30836;48.906;9.140;2024-01-15T04:06:14;975.25;;;5.79;46.59
45071;BME280;30836;48.906;9.140;2024-01-15T04:07:14;975.21;;;5.88;46.25
45071;BME280;30836;48.906;9.140;2024-01-15T04:08:15;975.21;;;5.90;46.53
45071;BME280;30836;48.906;9.140;2024-01-15T04:09:15;975.21;;;5.85;46.60
45071;BME280;30836;48.906;9.140;2024-01-15T04:10:16;975.17;;;5.92;46.15
45071;BME280;30836;48.906;9.140;2024-01-15T04:11:16;975.15;;;6.05;45.81
45071;BME280;30836;48.906;9.140;2024-01-15T04:12:16;975.15;;;6.11;45.94
45071;BME280;30836;48.906;9.140;2024-01-15T04:13:17;975.13;;;6.20;45.54
45071;BME280;30836;48.906;9.140;2024-01-15T04:14:17;975.17;;;6.26;45.38
45071;BME280;30836;48.906;9.140;2024-01-15T04:15:18;975.11;;;6.17;45.92
45071;BME280;30836;48.906;9.140;2024-01-15T04:16:18;975.09;;;6.02;46.16
45071;BME280;30836;48.906;9.140;2024-01-15T04:17:19;975.15;;;5.89;46.43
45071;BME280;30836;48.906;9.140;2024-01-15T04:18:19;975.11;;;5.79;46.74
45071;BME280;30836;48.906;9.140;2024-01-15T04:19:19;975.19;;;5.70;46.87
45071;BME280;30836;48.906;9.140;2024-01-15T04:20:20;975.13;;;5.61;47.30
45071;BME280;30836;48.906;9.140;2024-01-15T04:21:20;975.09;;;5.62;46.95
45071;BME280;30836;48.906;9.140;2024-01-15T04:22:21;975.09;;;5.68;46.91
45071;BME280;30836;48.906;9.140;2024-01-15T04:23:21;975.15;;;5.66;46.90
45071;BME280;30836;48.906;9.140;2024-01-15T04:24:22;975.13;;;5.65;47.07
45071;BME280;30836;48.906;9.140;2024-01-15T04:25:22;975.11;;;5.64;47.18
45071;BME280;30836;48.906;9.140;2024-01-15T04:26:22;975.05;;;5.66;46.98
45071;BME280;30836;48.906;9.140;2024-01-15T04:27:23;975.09;;;5.78;46.49
45071;BME280;30836;48.906;9.140;2024-01-15T04:28:23;975.01;;;5.90;46.43
45071;BME280;30836;48.906;9.140;2024-01-15T04:29:24;975.03;;;5.93;46.53
45071;BME280;30836;48.906;9.140;2024-01-15T04:30:24;975.01;;;5.95;46.34
45071;BME280;30836;48.906;9.140;2024-01-15T04:31:25;974.95;;;6.02;46.12
45071;BME280;30836;48.906;9.140;2024-01-15T04:32:26;974.91;;;6.11;45.90
45071;BME280;30836;48.906;9.140;2024-01-15T04:33:26;974.89;;;6.18;45.63
45071;BME280;30836;48.906;9.140;2024-01-15T04:34:26;974.85;;;6.19;45.66
45071;BME280;30836;48.906;9.140;2024-01-15T04:35:27;974.83;;;6.16;45.76
45071;BME280;30836;48.906;9.140;2024-01-15T04:36:27;974.75;;;6.16;45.55
45071;BME280;30836;48.906;9.140;2024-01-15T04:37:28;974.72;;;6.17;45.77
45071;BME280;30836;48.906;9.140;2024-01-15T04:38:28;974.72;;;6.15;45.89
45071;BME280;30836;48.906;9.140;2024-01-15T04:39:29;974.74;;;6.09;45.89
45071;BME280;30836;48.906;9.140;2024-01-15T04:40:29;974.77;;;6.11;45.73
45071;BME280;30836;48.906;9.140;2024-01-15T04:41:29;974.83;;;6.17;45.45
45071;BME280;30836;48.906;9.140;2024-01-15T04:42:30;974.91;;;6.20;45.35
45071;BME280;30836;48.906;9.140;2024-01-15T04:43:30;974.95;;;6.23;45.30
45071;BME280;30836;48.906;9.140;2024-01-15T04:44:31;974.97;;;6.28;45.08
45071;BME280;30836;48.906;9.140;2024-01-15T04:45:31;974.99;;;6.37;45.02
45071;BME280;30836;48.906;9.140;2024-01-15T04:46:32;975.01;;;6.47;44.76
45071;BME280;30836;48.906;9.140;2024-01-15T04:47:32;975.01;;;6.56;44.42
45071;BME280;30836;48.906;9.140;2024-01-15T04:48:33;974.99;;;6.70;44.15
45071;BME280;30836;48.906;9.140;2024-01-15T04:49:33;974.99;;;6.87;43.71
45071;BME280;30836;48.906;9.140;2024-01-15T04:50:34;974.99;;;6.98;43.67
45071;BME280;30836;48.906;9.140;2024-01-15T04:51:34;975.03;;;6.98;43.54
45071;BME280;30836;48.906;9.140;2024-01-15T04:52:35;975.05;;;6.90;43.77
45071;BME280;30836;48.906;9.140;2024-01-15T04:53:35;975.07;;;6.83;43.87
45071;BME280;30836;48.906;9.140;2024-01-15T04:54:36;975.07;;;6.85;43.66
45071;BME280;30836;48.906;9.140;2024-01-15T04:55:36;975.09;;;6.83;43.84
45071;BME280;30836;48.906;9.140;2024-01-15T04:56:37;975.05;;;6.77;44.01
45071;BME280;30836;48.906;9.140;2024-01-15T04:57:38;975.11;;;6.76;44.01
45071;BME280;30836;48.906;9.140;2024-01-15T04:58:38;975.09;;;6.77;43.94
45071;BME280;30836;48.906;9.140;2024-01-15T04:59:38;975.05;;;6.77;44.00
45071;BME280;30836;48.906;9.140;2024-01-15T05:00:39;975.01;;;6.83;43.72
45071;BME280;30836;48.906;9.140;2024-01-15T05:01:39;974.99;;;6.96;43.57
45071;BME280;30836;48.906;9.140;2024-01-15T05:02:40;974.97;;;7.07;43.26
45071;BME280;30836;48.906;9.140;2024-01-15T05:03:40;974.95;;;7.05;43.49
45071;BME280;30836;48.906;9.140;2024-01-15T05:04:41;974.91;;;6.94;43.75
45071;BME280;30836;48.906;9.140;2024-01-15T05:05:41;974.91;;;6.95;43.76
45071;BME280;30836;48.906;9.140;2024-01-15T05:06:41;974.87;;;6.96;43.80
45071;BME280;30836;48.906;9.140;2024-01-15T05:07:42;974.85;;;6.97;43.62
45071;BME280;30836;48.906;9.140;2024-01-15T05:08:42;974.85;;;6.99;43.60
45071;BME280;30836;48.906;9.140;2024-01-15T05:09:43;974.89;;;7.01;43.54
45071;BME280;30836;48.906;9.140;2024-01-15T05:10:43;974.85;;;7.01;43.73
45071;BME280;30836;48.906;9.140;2024-01-15T05:11:43;974.87;;;7.04;43.44
45071;BME280;30836;48.906;9.140;2024-01-15T05:12:44;974.91;;;7.13;43.34
45071;BME280;30836;48.906;9.140;2024-01-15T05:13:44;974.89;;;7.17;43.35
45071;BME280;30836;48.906;9.140;2024-01-15T05:14:45;974.85;;;7.24;42.94
45071;BME280;30836;48.906;9.140;2024-01-15T05:15:45;974.83;;;7.33;42.86
45071;BME280;30836;48.906;9.140;2024-01-15T05:16:48;974.79;;;7.37;42.79
45071;BME280;30836;48.906;9.140;2024-01-15T05:17:49;974.79;;;7.37;42.81
45071;BME280;30836;48.906;9.140;2024-01-15T05:18:50;974.83;;;7.33;42.74
45071;BME280;30836;48.906;9.140;2024-01-15T05:19:50;974.77;;;7.28;42.87
45071;BME280;30836;48.906;9.140;2024-01-15T05:20:50;974.79;;;7.28;42.73
45071;BME280;30836;48.906;9.140;2024-01-15T05:21:51;974.77;;;7.29;42.76
45071;BME280;30836;48.906;9.140;2024-01-15T05:22:51;974.77;;;7.22;43.05
45071;BME280;30836;48.906;9.140;2024-01-15T05:23:52;974.72;;;7.16;42.99
45071;BME280;30836;48.906;9.140;2024-01-15T05:24:52;974.72;;;7.18;42.88
45071;BME280;30836;48.906;9.140;2024-01-15T05:25:53;974.72;;;7.27;42.58
45071;BME280;30836;48.906;9.140;2024-01-15T05:26:53;974.72;;;7.32;42.45
45071;BME280;30836;48.906;9.140;2024-01-15T05:27:53;974.72;;;7.36;42.38
45071;BME280;30836;48.906;9.140;2024-01-15T05:28:54;974.72;;;7.37;42.40
45071;BME280;30836;48.906;9.140;2024-01-15T05:29:55;974.70;;;7.33;42.43
45071;BME280;30836;48.906;9.140;2024-01-15T05:30:55;974.74;;;7.31;42.51
45071;BME280;30836;48.906;9.140;2024-01-15T05:31:55;974.74;;;7.34;42.43
45071;BME280;30836;48.906;9.140;2024-01-15T05:32:56;974.77;;;7.40;42.21